Terminal Aerodrome Forecast
Issued by NWS Mt. Holly, NJ

Home | Current Version | Previous Version | Text Only | Print | Product List | Glossary On
Versions: 1 2 3 4 5 6 7 8 9 10 11 12 13 14 15 16 17 18 19
000
FTUS41 KPHI 261954 AAA
TAFILG
TAF AMD
KILG 261954Z 2620/2718 36007KT P6SM OVC015
     FM262200 VRB03KT P6SM BKN020
     FM270400 VRB03KT P6SM BKN015
     FM270800 VRB03KT 3SM BR BKN007 OVC015
     FM271300 12004KT P6SM BKN035
     FM271600 14006KT P6SM SCT035=

USA.gov is the U.S. government's official web portal to all federal, state and local government web resources and services.